createdAt,value
2022-10-29T00:00:04.526Z,87.60
2022-10-29T00:02:35.663Z,87.60
2022-10-29T00:05:07.055Z,87.60
2022-10-29T00:07:38.094Z,87.60
2022-10-29T00:10:09.882Z,88.00
2022-10-29T00:12:40.846Z,88.10
2022-10-29T00:15:12.629Z,88.30
2022-10-29T00:17:43.650Z,88.70
2022-10-29T00:20:14.996Z,88.60
2022-10-29T00:22:46.026Z,88.60
2022-10-29T00:25:16.916Z,88.80
2022-10-29T00:27:47.916Z,88.80
2022-10-29T00:30:19.083Z,88.40
2022-10-29T00:32:53.489Z,88.30
2022-10-29T00:35:24.832Z,88.40
2022-10-29T00:37:56.180Z,88.30
2022-10-29T00:40:27.329Z,88.30
2022-10-29T00:43:01.067Z,88.30
2022-10-29T00:45:32.588Z,88.30
2022-10-29T00:48:04.604Z,88.30
2022-10-29T00:50:35.992Z,88.20
2022-10-29T00:53:07.173Z,88.20
2022-10-29T00:55:40.432Z,88.40
2022-10-29T00:58:15.559Z,87.90
2022-10-29T01:00:48.660Z,87.90
2022-10-29T01:03:19.369Z,87.70
2022-10-29T01:05:51.917Z,87.70
2022-10-29T01:08:28.228Z,87.50
2022-10-29T01:11:17.731Z,87.10
2022-10-29T01:13:56.786Z,86.80
2022-10-29T01:16:30.648Z,86.80
2022-10-29T01:19:23.738Z,86.60
2022-10-29T01:22:16.911Z,86.10
2022-10-29T01:24:50.341Z,86.10
2022-10-29T01:27:43.830Z,85.90
2022-10-29T01:30:17.463Z,86.20
2022-10-29T01:33:05.992Z,84.90
2022-10-29T01:35:51.636Z,83.40
2022-10-29T01:38:44.322Z,83.50
2022-10-29T01:41:23.352Z,83.40
2022-10-29T01:43:59.696Z,83.60
2022-10-29T01:46:42.136Z,82.20
2022-10-29T01:49:15.738Z,82.10
2022-10-29T01:51:47.895Z,81.70
2022-10-29T01:54:18.930Z,81.00
2022-10-29T01:56:57.669Z,80.40
2022-10-29T01:59:43.195Z,79.60
2022-10-29T02:02:14.304Z,79.30
2022-10-29T02:04:56.713Z,78.80
2022-10-29T02:07:38.733Z,79.40
2022-10-29T02:10:15.101Z,79.30
2022-10-29T02:12:54.677Z,79.00
2022-10-29T02:15:28.037Z,79.40
2022-10-29T02:18:06.901Z,79.50
2022-10-29T02:20:37.799Z,78.90
2022-10-29T02:23:09.200Z,78.10
2022-10-29T02:25:41.428Z,78.10
2022-10-29T02:28:12.275Z,77.90
2022-10-29T02:30:43.152Z,78.10
2022-10-29T02:33:13.928Z,78.20
2022-10-29T02:35:44.748Z,77.40
2022-10-29T02:38:15.524Z,76.90
2022-10-29T02:40:46.285Z,76.60
2022-10-29T02:43:17.222Z,76.20
2022-10-29T02:45:52.779Z,75.80
2022-10-29T02:48:23.614Z,76.40
2022-10-29T02:50:54.749Z,76.80
2022-10-29T02:53:25.555Z,75.40
2022-10-29T02:55:56.321Z,74.70
2022-10-29T02:58:27.155Z,74.50
2022-10-29T03:00:58.139Z,75.00
2022-10-29T03:03:29.004Z,74.60
2022-10-29T03:05:59.970Z,74.80
2022-10-29T03:08:30.900Z,74.40
2022-10-29T03:11:01.667Z,74.70
2022-10-29T03:13:32.821Z,73.80
2022-10-29T03:16:03.657Z,73.40
2022-10-29T03:18:35.432Z,73.60
2022-10-29T03:21:06.349Z,72.70
2022-10-29T03:23:37.117Z,73.10
2022-10-29T03:26:08.067Z,72.70
2022-10-29T03:28:39.106Z,71.90
2022-10-29T03:31:10.131Z,71.60
2022-10-29T03:33:40.949Z,71.30
2022-10-29T03:36:12.287Z,71.70
2022-10-29T03:38:43.263Z,71.10
2022-10-29T03:41:14.656Z,71.40
2022-10-29T03:43:45.640Z,70.60
2022-10-29T03:46:16.543Z,70.10
2022-10-29T03:48:47.379Z,70.40
2022-10-29T03:51:18.412Z,69.40
2022-10-29T03:53:51.315Z,70.00
2022-10-29T03:56:22.120Z,70.60
2022-10-29T03:58:53.073Z,70.70
2022-10-29T04:01:24.124Z,70.60
2022-10-29T04:03:54.958Z,71.10
2022-10-29T04:06:25.745Z,70.00
2022-10-29T04:08:57.172Z,69.60
2022-10-29T04:11:27.980Z,67.30
2022-10-29T04:13:58.704Z,66.70
2022-10-29T04:16:30.562Z,67.00
2022-10-29T04:19:01.508Z,66.20
2022-10-29T04:23:25.546Z,66.00
2022-10-29T04:29:08.825Z,65.30
2022-10-29T04:31:39.908Z,65.00
2022-10-29T04:34:10.735Z,65.10
2022-10-29T04:36:41.538Z,65.00
2022-10-29T04:39:12.396Z,65.00
2022-10-29T04:41:43.113Z,64.80
2022-10-29T04:44:14.913Z,65.10
2022-10-29T04:46:45.744Z,66.00
2022-10-29T04:49:16.611Z,65.00
2022-10-29T04:51:47.411Z,64.00
2022-10-29T04:54:18.110Z,63.40
2022-10-29T04:56:53.397Z,63.30
2022-10-29T04:59:24.210Z,62.50
2022-10-29T05:01:54.982Z,62.30
2022-10-29T05:04:25.752Z,62.80
2022-10-29T05:06:56.557Z,62.90
2022-10-29T05:09:27.352Z,63.10
2022-10-29T05:11:58.135Z,63.80
2022-10-29T05:14:28.891Z,64.00
2022-10-29T05:17:01.396Z,63.90
2022-10-29T05:19:32.740Z,64.30
2022-10-29T05:22:03.587Z,62.80
2022-10-29T05:24:34.369Z,62.90
2022-10-29T05:27:10.141Z,63.10
2022-10-29T05:29:41.033Z,62.60
2022-10-29T05:32:11.821Z,62.80
2022-10-29T05:34:44.664Z,63.10
2022-10-29T05:37:15.873Z,63.30
2022-10-29T05:42:20.156Z,61.40
2022-10-29T05:44:50.556Z,62.10
2022-10-29T05:47:21.395Z,62.10
2022-10-29T05:49:52.184Z,62.50
2022-10-29T05:52:22.959Z,62.20
2022-10-29T05:54:53.791Z,62.20
2022-10-29T05:57:24.577Z,62.00
2022-10-29T05:59:55.925Z,62.10
2022-10-29T06:02:26.906Z,62.50
2022-10-29T06:04:57.843Z,63.00
2022-10-29T06:07:29.380Z,62.90
2022-10-29T06:10:00.150Z,61.00
2022-10-29T06:12:34.760Z,61.50
2022-10-29T06:15:04.489Z,61.60
2022-10-29T06:17:35.811Z,61.90
2022-10-29T06:20:07.374Z,61.20
2022-10-29T06:22:38.307Z,61.60
2022-10-29T06:25:10.137Z,61.80
2022-10-29T06:27:41.444Z,62.00
2022-10-29T06:30:14.666Z,62.00
2022-10-29T06:32:48.277Z,62.10
2022-10-29T06:35:19.536Z,61.90
2022-10-29T06:37:50.537Z,62.50
2022-10-29T06:40:21.359Z,62.50
2022-10-29T06:42:54.012Z,62.30
2022-10-29T06:45:26.013Z,63.10
2022-10-29T06:47:58.524Z,63.20
2022-10-29T06:50:33.200Z,63.80
2022-10-29T06:53:08.212Z,64.60
2022-10-29T06:55:39.540Z,64.80
2022-10-29T06:58:16.034Z,64.50
2022-10-29T07:00:46.250Z,64.60
2022-10-29T07:03:20.577Z,65.10
2022-10-29T07:05:52.754Z,65.00
2022-10-29T07:08:23.596Z,65.30
2022-10-29T07:10:59.123Z,65.50
2022-10-29T07:13:30.455Z,66.00
2022-10-29T07:16:06.244Z,65.80
2022-10-29T07:18:37.134Z,65.70
2022-10-29T07:21:08.406Z,65.80
2022-10-29T07:23:40.124Z,65.90
2022-10-29T07:26:14.398Z,66.20
2022-10-29T07:28:45.630Z,66.60
2022-10-29T07:31:16.757Z,67.30
2022-10-29T07:33:52.233Z,67.10
2022-10-29T07:36:22.992Z,66.80
2022-10-29T07:38:53.713Z,66.60
2022-10-29T07:41:24.626Z,66.60
2022-10-29T07:43:55.493Z,66.40
2022-10-29T07:46:26.778Z,66.60
2022-10-29T07:48:57.446Z,66.90
2022-10-29T07:51:32.161Z,67.20
2022-10-29T07:54:05.632Z,67.30
2022-10-29T07:56:37.223Z,67.30
2022-10-29T07:59:16.967Z,67.30
2022-10-29T08:01:48.406Z,67.70
2022-10-29T08:04:20.124Z,68.30
2022-10-29T08:06:51.733Z,68.50
2022-10-29T08:09:24.990Z,68.10
2022-10-29T08:11:55.888Z,67.80
2022-10-29T08:14:26.646Z,68.10
2022-10-29T08:16:57.667Z,67.80
2022-10-29T08:19:30.119Z,68.30
2022-10-29T08:22:01.649Z,68.70
2022-10-29T08:24:35.250Z,69.20
2022-10-29T08:27:06.814Z,69.50
2022-10-29T08:29:37.996Z,69.80
2022-10-29T08:32:08.872Z,69.70
2022-10-29T08:34:41.496Z,69.70
2022-10-29T08:37:16.097Z,69.90
2022-10-29T08:39:46.886Z,70.00
2022-10-29T08:42:50.679Z,70.10
2022-10-29T08:45:30.621Z,70.40
2022-10-29T08:48:16.085Z,70.90
2022-10-29T08:50:49.904Z,70.90
2022-10-29T08:53:25.806Z,71.10
2022-10-29T08:55:56.757Z,71.50
2022-10-29T08:58:45.525Z,71.60
2022-10-29T09:01:18.174Z,71.80
2022-10-29T09:03:52.751Z,72.10
2022-10-29T09:06:57.669Z,72.20
2022-10-29T09:09:54.328Z,72.50
2022-10-29T09:12:47.019Z,72.70
2022-10-29T09:15:23.647Z,72.70
2022-10-29T09:18:31.791Z,72.80
2022-10-29T09:21:21.158Z,73.00
2022-10-29T09:24:26.474Z,73.20
2022-10-29T09:27:08.178Z,73.40
2022-10-29T09:29:58.148Z,74.00
2022-10-29T09:32:43.476Z,74.10
2022-10-29T09:35:21.569Z,74.40
2022-10-29T09:37:59.185Z,74.10
2022-10-29T09:40:36.711Z,74.00
2022-10-29T09:43:46.528Z,74.00
2022-10-29T09:46:52.648Z,74.60
2022-10-29T09:49:54.095Z,74.50
2022-10-29T09:52:27.888Z,74.70
2022-10-29T09:55:03.127Z,74.70
2022-10-29T09:57:36.631Z,75.80
2022-10-29T10:00:11.262Z,75.10
2022-10-29T10:03:17.077Z,75.20
2022-10-29T10:06:09.219Z,75.10
2022-10-29T10:08:58.924Z,75.20
2022-10-29T10:11:35.218Z,75.30
2022-10-29T10:14:08.605Z,75.30
2022-10-29T10:16:39.477Z,75.50
2022-10-29T10:19:24.466Z,75.70
2022-10-29T10:22:00.659Z,75.80
2022-10-29T10:24:42.293Z,76.00
2022-10-29T10:27:27.735Z,76.20
2022-10-29T10:30:18.061Z,76.30
2022-10-29T10:32:48.810Z,76.40
2022-10-29T10:35:33.306Z,76.60
2022-10-29T10:38:06.635Z,77.00
2022-10-29T10:40:41.517Z,77.10
2022-10-29T10:43:28.447Z,77.40
2022-10-29T10:46:04.933Z,77.70
2022-10-29T10:51:45.937Z,77.30
2022-10-29T10:57:00.554Z,77.80
2022-10-29T10:59:48.966Z,77.80
2022-10-29T11:02:32.238Z,78.00
2022-10-29T11:05:27.602Z,78.10
2022-10-29T11:08:03.461Z,78.30
2022-10-29T11:10:50.421Z,78.30
2022-10-29T11:13:29.902Z,78.50
2022-10-29T11:16:34.938Z,78.40
2022-10-29T11:19:17.651Z,78.40
2022-10-29T11:21:59.024Z,78.20
2022-10-29T11:24:35.430Z,78.10
2022-10-29T11:27:17.673Z,77.80
2022-10-29T11:30:00.385Z,77.80
2022-10-29T11:32:34.321Z,77.70
2022-10-29T11:35:08.079Z,77.90
2022-10-29T11:37:49.709Z,78.10
2022-10-29T11:40:34.916Z,78.20
2022-10-29T11:43:09.126Z,78.20
2022-10-29T11:46:42.655Z,78.10
2022-10-29T11:48:51.049Z,78.10
2022-10-29T11:51:43.473Z,78.30
2022-10-29T11:54:22.342Z,78.10
2022-10-29T11:57:06.209Z,78.10
2022-10-29T12:02:54.228Z,78.10
2022-10-29T12:05:44.189Z,78.40
2022-10-29T12:08:20.390Z,78.60
2022-10-29T12:11:17.639Z,78.90
2022-10-29T12:14:11.836Z,78.80
2022-10-29T12:16:47.922Z,80.10
2022-10-29T12:19:24.012Z,79.40
2022-10-29T12:22:19.239Z,79.40
2022-10-29T12:25:47.234Z,79.40
2022-10-29T12:27:57.414Z,79.50
2022-10-29T12:30:30.045Z,79.60
2022-10-29T12:33:03.407Z,79.70
2022-10-29T12:35:48.741Z,79.70
2022-10-29T12:38:49.471Z,79.90
2022-10-29T12:41:40.947Z,79.60
2022-10-29T12:44:20.141Z,79.60
2022-10-29T12:46:57.076Z,79.70
2022-10-29T12:49:41.924Z,80.00
2022-10-29T12:52:24.337Z,80.20
2022-10-29T12:54:56.732Z,80.20
2022-10-29T12:57:32.808Z,80.50
2022-10-29T13:00:28.646Z,80.60
2022-10-29T13:03:00.252Z,80.40
2022-10-29T13:05:42.945Z,80.40
2022-10-29T13:08:25.066Z,80.60
2022-10-29T13:10:56.831Z,80.70
2022-10-29T13:13:32.859Z,81.00
2022-10-29T13:16:09.019Z,81.20
2022-10-29T13:18:51.117Z,81.30
2022-10-29T13:21:59.123Z,81.40
2022-10-29T13:24:31.303Z,81.90
2022-10-29T13:27:28.837Z,81.80
2022-10-29T13:30:20.387Z,82.30
2022-10-29T13:32:51.197Z,82.40
2022-10-29T13:35:24.575Z,82.70
2022-10-29T13:38:01.667Z,82.70
2022-10-29T13:40:43.316Z,82.80
2022-10-29T13:43:21.404Z,82.70
2022-10-29T13:45:55.925Z,83.20
2022-10-29T13:48:49.059Z,83.30
2022-10-29T13:51:22.281Z,83.40
2022-10-29T13:53:57.537Z,83.40
2022-10-29T13:56:46.365Z,83.70
2022-10-29T13:59:22.538Z,83.80
2022-10-29T14:01:56.016Z,83.80
2022-10-29T14:07:26.670Z,84.90
2022-10-29T14:10:02.475Z,84.20
2022-10-29T14:12:35.328Z,84.30
2022-10-29T14:15:19.863Z,84.30
2022-10-29T14:18:06.771Z,84.20
2022-10-29T14:20:37.838Z,84.20
2022-10-29T14:23:18.691Z,84.10
2022-10-29T14:26:01.242Z,84.30
2022-10-29T14:28:35.861Z,84.40
2022-10-29T14:31:20.368Z,84.30
2022-10-29T14:33:59.789Z,84.40
2022-10-29T14:36:45.752Z,84.60
2022-10-29T14:39:21.849Z,84.40
2022-10-29T14:42:00.301Z,84.80
2022-10-29T14:44:33.372Z,84.60
2022-10-29T14:47:10.966Z,84.80
2022-10-29T14:49:44.354Z,84.80
2022-10-29T14:52:32.843Z,84.80
2022-10-29T14:55:06.569Z,84.80
2022-10-29T14:57:40.203Z,84.70
2022-10-29T15:00:19.767Z,84.80
2022-10-29T15:02:52.748Z,85.00
2022-10-29T15:05:40.168Z,84.90
2022-10-29T15:08:19.470Z,85.10
2022-10-29T15:10:52.148Z,85.30
2022-10-29T15:13:25.487Z,85.30
2022-10-29T15:16:04.735Z,85.60
2022-10-29T15:18:37.490Z,85.60
2022-10-29T15:21:09.007Z,85.60
2022-10-29T15:23:47.375Z,85.60
2022-10-29T15:26:24.234Z,85.90
2022-10-29T15:29:06.533Z,85.80
2022-10-29T15:31:50.279Z,85.60
2022-10-29T15:34:23.678Z,85.90
2022-10-29T15:36:59.793Z,86.00
2022-10-29T15:39:32.796Z,86.10
2022-10-29T15:42:04.434Z,86.10
2022-10-29T15:44:40.558Z,86.10
2022-10-29T15:47:23.411Z,86.40
2022-10-29T15:49:54.281Z,86.50
2022-10-29T15:52:27.644Z,86.90
2022-10-29T15:54:58.520Z,87.00
2022-10-29T15:57:30.397Z,87.10
2022-10-29T16:02:33.166Z,88.00
2022-10-29T16:05:06.937Z,87.30
2022-10-29T16:07:37.843Z,87.50
2022-10-29T16:10:09.235Z,87.90
2022-10-29T16:12:40.138Z,88.00
2022-10-29T16:15:16.457Z,87.70
2022-10-29T16:17:47.811Z,87.90
2022-10-29T16:20:20.929Z,88.00
2022-10-29T16:22:54.449Z,88.30
2022-10-29T16:25:30.098Z,88.30
2022-10-29T16:28:01.104Z,88.40
2022-10-29T16:30:32.290Z,88.40
2022-10-29T16:33:04.175Z,88.50
2022-10-29T16:35:38.008Z,88.70
2022-10-29T16:38:09.173Z,88.70
2022-10-29T16:40:40.099Z,88.90
2022-10-29T16:43:13.590Z,88.90
2022-10-29T16:45:44.526Z,89.20
2022-10-29T16:48:15.370Z,89.20
2022-10-29T16:50:46.141Z,88.90
2022-10-29T16:53:16.966Z,88.90
2022-10-29T16:55:47.775Z,89.10
2022-10-29T16:58:20.047Z,89.20
2022-10-29T17:00:51.415Z,89.30
2022-10-29T17:03:22.313Z,89.30
2022-10-29T17:05:53.348Z,89.50
2022-10-29T17:08:24.189Z,89.50
2022-10-29T17:10:57.580Z,90.30
2022-10-29T17:13:28.384Z,89.80
2022-10-29T17:15:59.179Z,89.50
2022-10-29T17:18:30.021Z,89.50
2022-10-29T17:21:02.230Z,89.70
2022-10-29T17:23:33.236Z,89.80
2022-10-29T17:26:07.084Z,90.30
2022-10-29T17:28:39.663Z,89.90
2022-10-29T17:31:15.947Z,89.90
2022-10-29T17:33:46.742Z,89.80
2022-10-29T17:36:19.564Z,89.90
2022-10-29T17:38:50.504Z,90.00
2022-10-29T17:41:21.443Z,90.20
2022-10-29T17:43:52.272Z,90.40
2022-10-29T17:46:23.078Z,90.20
2022-10-29T17:48:58.401Z,90.30
2022-10-29T17:51:29.827Z,90.30
2022-10-29T17:54:00.953Z,90.30
2022-10-29T17:56:32.875Z,90.50
2022-10-29T17:59:03.920Z,90.60
2022-10-29T18:01:35.170Z,90.50
2022-10-29T18:04:06.327Z,90.80
2022-10-29T18:06:37.135Z,90.70
2022-10-29T18:09:07.949Z,90.70
2022-10-29T18:11:38.753Z,90.80
2022-10-29T18:14:09.547Z,90.80
2022-10-29T18:16:40.267Z,90.80
2022-10-29T18:19:11.257Z,90.80
2022-10-29T18:21:42.029Z,90.80
2022-10-29T18:24:13.285Z,90.80
2022-10-29T18:26:44.171Z,90.80
2022-10-29T18:29:15.449Z,90.80
2022-10-29T18:31:49.247Z,91.30
2022-10-29T18:34:20.060Z,90.90
2022-10-29T18:36:52.245Z,90.90
2022-10-29T18:39:23.066Z,90.80
2022-10-29T18:41:53.905Z,91.00
2022-10-29T18:44:24.672Z,91.20
2022-10-29T18:46:57.316Z,90.80
2022-10-29T18:49:28.943Z,90.90
2022-10-29T18:52:00.220Z,91.00
2022-10-29T18:54:31.028Z,90.80
2022-10-29T18:57:01.796Z,90.70
2022-10-29T18:59:32.576Z,90.70
2022-10-29T19:02:03.463Z,90.80
2022-10-29T19:04:34.369Z,90.70
2022-10-29T19:07:05.145Z,90.80
2022-10-29T19:09:35.840Z,90.90
2022-10-29T19:12:06.869Z,91.10
2022-10-29T19:14:37.769Z,91.00
2022-10-29T19:17:10.319Z,91.10
2022-10-29T19:19:41.175Z,91.20
2022-10-29T19:22:11.927Z,91.20
2022-10-29T19:24:42.712Z,91.20
2022-10-29T19:27:13.495Z,91.20
2022-10-29T19:29:44.208Z,91.30
2022-10-29T19:32:14.997Z,91.40
2022-10-29T19:34:46.201Z,91.40
2022-10-29T19:37:16.969Z,91.60
2022-10-29T19:39:47.767Z,91.70
2022-10-29T19:42:19.645Z,91.70
2022-10-29T19:44:53.657Z,91.70
2022-10-29T19:47:24.024Z,91.70
2022-10-29T19:49:54.700Z,91.60
2022-10-29T19:52:25.694Z,91.60
2022-10-29T19:54:58.419Z,91.60
2022-10-29T19:57:29.200Z,91.60
2022-10-29T19:59:59.987Z,91.40
2022-10-29T20:02:33.629Z,91.40
2022-10-29T20:05:05.081Z,91.50
2022-10-29T20:07:35.723Z,91.70
2022-10-29T20:10:07.113Z,92.00
2022-10-29T20:12:37.917Z,92.10
2022-10-29T20:15:09.529Z,92.30
2022-10-29T20:17:40.474Z,91.80
2022-10-29T20:20:17.208Z,92.10
2022-10-29T20:22:48.988Z,92.20
2022-10-29T20:25:23.868Z,92.10
2022-10-29T20:27:52.095Z,92.00
2022-10-29T20:30:23.047Z,92.20
2022-10-29T20:32:53.856Z,91.80
2022-10-29T20:35:24.714Z,91.90
2022-10-29T20:37:55.736Z,92.00
2022-10-29T20:40:26.916Z,92.10
2022-10-29T20:42:57.831Z,92.00
2022-10-29T20:45:28.766Z,91.70
2022-10-29T20:48:01.497Z,92.00
2022-10-29T20:50:32.548Z,92.30
2022-10-29T20:53:06.341Z,92.30
2022-10-29T20:55:40.509Z,92.40
2022-10-29T20:58:11.345Z,92.40
2022-10-29T21:00:42.139Z,92.70
2022-10-29T21:03:16.792Z,92.40
2022-10-29T21:05:47.613Z,92.40
2022-10-29T21:08:18.468Z,92.20
2022-10-29T21:10:49.317Z,92.40
2022-10-29T21:13:20.137Z,92.80
2022-10-29T21:15:50.935Z,93.00
2022-10-29T21:18:21.732Z,92.80
2022-10-29T21:20:52.533Z,92.60
2022-10-29T21:23:24.041Z,92.60
2022-10-29T21:25:56.312Z,92.50
2022-10-29T21:28:27.176Z,92.40
2022-10-29T21:30:57.963Z,92.90
2022-10-29T21:33:30.280Z,93.10
2022-10-29T21:36:01.696Z,93.10
2022-10-29T21:38:33.848Z,92.80
2022-10-29T21:41:04.920Z,93.10
2022-10-29T21:43:35.693Z,93.40
2022-10-29T21:46:06.373Z,93.60
2022-10-29T21:48:38.922Z,93.80
2022-10-29T21:51:11.945Z,94.00
2022-10-29T21:53:43.102Z,94.10
2022-10-29T21:56:19.333Z,94.20
2022-10-29T21:58:51.331Z,94.40
2022-10-29T22:01:22.450Z,94.50
2022-10-29T22:03:53.537Z,94.60
2022-10-29T22:06:29.439Z,94.80
2022-10-29T22:09:05.143Z,94.80
2022-10-29T22:11:35.926Z,95.00
2022-10-29T22:14:06.751Z,95.10
2022-10-29T22:16:37.601Z,95.10
2022-10-29T22:19:08.532Z,94.90
2022-10-29T22:21:39.305Z,94.30
2022-10-29T22:24:11.621Z,94.10
2022-10-29T22:26:42.398Z,94.10
2022-10-29T22:29:13.318Z,93.90
2022-10-29T22:31:44.257Z,93.80
2022-10-29T22:34:15.147Z,93.40
2022-10-29T22:36:45.946Z,93.50
2022-10-29T22:39:16.726Z,93.50
2022-10-29T22:41:47.741Z,93.70
2022-10-29T22:44:18.679Z,93.70
2022-10-29T22:46:52.241Z,93.90
2022-10-29T22:49:23.180Z,94.20
2022-10-29T22:51:58.771Z,94.30
2022-10-29T22:54:29.665Z,94.50
2022-10-29T22:57:00.484Z,94.70
2022-10-29T22:59:31.262Z,95.10
2022-10-29T23:02:05.122Z,95.00
2022-10-29T23:04:36.010Z,95.10
2022-10-29T23:07:06.921Z,95.40
2022-10-29T23:09:37.678Z,95.60
2022-10-29T23:12:10.743Z,95.80
2022-10-29T23:14:41.555Z,95.90
2022-10-29T23:17:21.339Z,96.20
2022-10-29T23:19:56.471Z,96.00
2022-10-29T23:22:27.799Z,96.40
2022-10-29T23:24:58.948Z,96.10
2022-10-29T23:27:29.792Z,96.30
2022-10-29T23:30:00.572Z,96.30
2022-10-29T23:32:31.404Z,96.30
2022-10-29T23:35:02.259Z,96.50
2022-10-29T23:37:33.068Z,96.50
2022-10-29T23:40:09.302Z,96.40
2022-10-29T23:42:40.032Z,96.60
2022-10-29T23:45:11.865Z,96.50
2022-10-29T23:47:42.948Z,96.40
2022-10-29T23:50:13.775Z,96.30
2022-10-29T23:52:44.702Z,96.40
2022-10-29T23:55:18.891Z,96.30
2022-10-29T23:57:49.651Z,96.20
